createdAt,value
2018-03-12T00:00:07.005Z,0
2018-03-12T00:01:08.616Z,0
2018-03-12T00:02:10.225Z,0
2018-03-12T00:03:11.831Z,0
2018-03-12T00:04:13.440Z,0
2018-03-12T00:05:15.057Z,0
2018-03-12T00:06:16.668Z,0
2018-03-12T00:07:18.289Z,0
2018-03-12T00:08:19.881Z,0
2018-03-12T00:09:21.491Z,0
2018-03-12T00:10:23.100Z,0
2018-03-12T00:11:24.704Z,0
2018-03-12T00:12:26.317Z,0
2018-03-12T00:13:27.927Z,0
2018-03-12T00:14:29.536Z,0
2018-03-12T00:15:31.140Z,0
2018-03-12T00:16:32.747Z,0
2018-03-12T00:17:34.357Z,0
2018-03-12T00:18:35.969Z,0
2018-03-12T00:19:37.578Z,0
2018-03-12T00:20:39.185Z,0
2018-03-12T00:21:40.796Z,0
2018-03-12T00:22:42.408Z,0
2018-03-12T00:23:44.012Z,0
2018-03-12T00:24:45.625Z,0
2018-03-12T00:25:47.232Z,0
2018-03-12T00:26:48.837Z,0
2018-03-12T00:27:50.452Z,0
2018-03-12T00:28:52.060Z,0
2018-03-12T00:29:53.672Z,0
2018-03-12T00:30:55.285Z,0
2018-03-12T00:31:56.895Z,0
2018-03-12T00:32:58.506Z,0
2018-03-12T00:34:00.114Z,0
2018-03-12T00:35:01.727Z,0
2018-03-12T00:36:03.332Z,0
2018-03-12T00:37:04.943Z,0
2018-03-12T00:38:06.549Z,0
2018-03-12T00:39:08.161Z,0
2018-03-12T00:40:09.766Z,0
2018-03-12T00:41:11.381Z,0
2018-03-12T00:42:12.990Z,0
2018-03-12T00:43:14.600Z,0
2018-03-12T00:44:16.204Z,0
2018-03-12T00:45:17.813Z,0
2018-03-12T00:46:19.425Z,0
2018-03-12T00:47:21.031Z,0
2018-03-12T00:48:22.644Z,0
2018-03-12T00:49:24.251Z,0
2018-03-12T00:50:25.862Z,0
2018-03-12T00:51:27.464Z,0
2018-03-12T00:52:29.078Z,0
2018-03-12T00:53:30.684Z,0
2018-03-12T00:54:32.299Z,0
2018-03-12T00:55:33.906Z,0
2018-03-12T00:56:35.522Z,0
2018-03-12T00:57:37.123Z,0
2018-03-12T00:58:38.732Z,0
2018-03-12T00:59:40.341Z,0
2018-03-12T01:00:41.953Z,0
2018-03-12T01:01:43.564Z,0
2018-03-12T01:02:45.169Z,0
2018-03-12T01:03:46.782Z,0
2018-03-12T01:04:48.392Z,0
2018-03-12T01:05:49.997Z,0
2018-03-12T01:06:51.608Z,0
2018-03-12T01:07:53.220Z,0
2018-03-12T01:08:54.825Z,0
2018-03-12T01:09:56.435Z,0
2018-03-12T01:10:58.049Z,0
2018-03-12T01:11:59.656Z,0
2018-03-12T01:13:01.259Z,0
2018-03-12T01:14:02.871Z,0
2018-03-12T01:15:04.478Z,0
2018-03-12T01:16:06.084Z,0
2018-03-12T01:17:07.699Z,0
2018-03-12T01:18:09.311Z,0
2018-03-12T01:19:10.915Z,0
2018-03-12T01:20:12.522Z,0
2018-03-12T01:21:14.134Z,0
2018-03-12T01:22:15.741Z,0
2018-03-12T01:23:17.352Z,0
2018-03-12T01:24:18.957Z,0
2018-03-12T01:25:20.571Z,0
2018-03-12T01:26:22.174Z,0
2018-03-12T01:27:23.786Z,0
2018-03-12T01:28:25.394Z,0
2018-03-12T01:29:27.005Z,0
2018-03-12T01:30:28.611Z,0
2018-03-12T01:31:30.225Z,0
2018-03-12T01:32:31.840Z,0
2018-03-12T01:33:33.447Z,0
2018-03-12T01:34:35.048Z,0
2018-03-12T01:35:36.660Z,0
2018-03-12T01:36:38.269Z,0
2018-03-12T01:37:39.878Z,0
2018-03-12T01:38:41.486Z,0
2018-03-12T01:39:43.094Z,0
2018-03-12T01:40:44.699Z,0
2018-03-12T01:41:46.312Z,0
2018-03-12T01:42:48.744Z,0
2018-03-12T01:43:50.354Z,0
2018-03-12T01:44:51.957Z,0
2018-03-12T01:45:53.571Z,0
2018-03-12T01:46:55.184Z,0
2018-03-12T01:47:56.787Z,0
2018-03-12T01:48:58.398Z,0
2018-03-12T01:50:00.005Z,0
2018-03-12T01:51:01.617Z,0
2018-03-12T01:52:03.223Z,0
2018-03-12T01:53:04.837Z,0
2018-03-12T01:54:06.441Z,0
2018-03-12T01:55:08.068Z,0
2018-03-12T01:56:09.675Z,0
2018-03-12T01:57:11.281Z,0
2018-03-12T01:58:12.894Z,0
2018-03-12T01:59:14.504Z,0
2018-03-12T02:00:16.110Z,0
2018-03-12T02:01:17.718Z,0
2018-03-12T02:02:19.327Z,0
2018-03-12T02:03:20.944Z,0
2018-03-12T02:04:22.546Z,0
2018-03-12T02:05:24.152Z,0
2018-03-12T02:06:25.765Z,0
2018-03-12T02:07:27.372Z,0
2018-03-12T02:08:28.985Z,0
2018-03-12T02:09:30.590Z,0
2018-03-12T02:10:32.200Z,0
2018-03-12T02:11:33.808Z,0
2018-03-12T02:12:35.413Z,0
2018-03-12T02:13:37.025Z,0
2018-03-12T02:14:38.632Z,0
2018-03-12T02:15:40.246Z,0
2018-03-12T02:16:41.850Z,0
2018-03-12T02:17:43.460Z,0
2018-03-12T02:18:45.065Z,0
2018-03-12T02:19:46.671Z,0
2018-03-12T02:20:48.282Z,0
2018-03-12T02:21:49.888Z,0
2018-03-12T02:22:51.499Z,0
2018-03-12T02:23:53.103Z,0
2018-03-12T02:24:54.716Z,0
2018-03-12T02:25:56.325Z,0
2018-03-12T02:26:57.935Z,0
2018-03-12T02:27:59.542Z,0
2018-03-12T02:29:01.158Z,0
2018-03-12T02:30:02.768Z,0
2018-03-12T02:31:04.373Z,0
2018-03-12T02:32:05.978Z,0
2018-03-12T02:33:07.588Z,0
2018-03-12T02:34:09.193Z,0
2018-03-12T02:35:10.806Z,0
2018-03-12T02:36:12.416Z,0
2018-03-12T02:37:14.024Z,0
2018-03-12T02:38:15.629Z,0
2018-03-12T02:39:17.243Z,0
2018-03-12T02:40:18.851Z,0
2018-03-12T02:41:20.474Z,0
2018-03-12T02:42:22.070Z,0
2018-03-12T02:43:23.681Z,0
2018-03-12T02:44:25.291Z,0
2018-03-12T02:45:26.893Z,0
2018-03-12T02:46:28.502Z,0
2018-03-12T02:47:30.108Z,0
2018-03-12T02:48:31.716Z,0
2018-03-12T02:49:33.326Z,0
2018-03-12T02:50:34.934Z,0
2018-03-12T02:51:36.540Z,0
2018-03-12T02:52:38.152Z,0
2018-03-12T02:53:39.753Z,0
2018-03-12T02:54:41.365Z,0
2018-03-12T02:55:42.975Z,0
2018-03-12T02:56:44.584Z,0
2018-03-12T02:57:46.191Z,0
2018-03-12T02:58:47.802Z,0
2018-03-12T02:59:49.407Z,0
2018-03-12T03:00:51.017Z,0
2018-03-12T03:01:52.622Z,0
2018-03-12T03:02:54.234Z,0
2018-03-12T03:03:55.837Z,0
2018-03-12T03:04:57.450Z,0
2018-03-12T03:05:59.058Z,0
2018-03-12T03:07:01.161Z,0
2018-03-12T03:08:02.228Z,0
2018-03-12T03:09:03.827Z,0
2018-03-12T03:10:05.440Z,0
2018-03-12T03:11:07.044Z,0
2018-03-12T03:12:08.656Z,0
2018-03-12T03:13:10.262Z,0
2018-03-12T03:14:11.872Z,0
2018-03-12T03:15:13.477Z,0
2018-03-12T03:16:15.089Z,0
2018-03-12T03:17:16.699Z,0
2018-03-12T03:18:18.302Z,0
2018-03-12T03:19:19.917Z,0
2018-03-12T03:20:21.522Z,0
2018-03-12T03:21:23.130Z,0
2018-03-12T03:22:24.734Z,0
2018-03-12T03:23:26.344Z,0
2018-03-12T03:24:27.954Z,0
2018-03-12T03:25:29.578Z,0
2018-03-12T03:26:31.166Z,0
2018-03-12T03:27:32.772Z,0
2018-03-12T03:28:34.387Z,0
2018-03-12T03:29:35.990Z,0
2018-03-12T03:30:37.598Z,0
2018-03-12T03:31:39.202Z,0
2018-03-12T03:32:40.813Z,0
2018-03-12T03:33:42.423Z,0
2018-03-12T03:34:44.029Z,0
2018-03-12T03:35:45.632Z,0
2018-03-12T03:36:47.243Z,0
2018-03-12T03:37:48.856Z,0
2018-03-12T03:38:50.457Z,0
2018-03-12T03:39:52.069Z,0
2018-03-12T03:40:53.675Z,0
2018-03-12T03:41:55.280Z,0
2018-03-12T03:42:56.890Z,0
2018-03-12T03:43:58.492Z,0
2018-03-12T03:45:00.660Z,0
2018-03-12T03:46:02.266Z,0
2018-03-12T03:47:03.880Z,0
2018-03-12T03:48:05.484Z,0
2018-03-12T03:49:07.097Z,0
2018-03-12T03:50:08.700Z,0
2018-03-12T03:51:10.310Z,0
2018-03-12T03:52:11.914Z,0
2018-03-12T03:53:13.522Z,0
2018-03-12T03:54:15.130Z,0
2018-03-12T03:55:16.742Z,0
2018-03-12T03:56:18.353Z,0
2018-03-12T03:57:19.956Z,0
2018-03-12T03:58:21.567Z,0
2018-03-12T03:59:23.175Z,0
2018-03-12T04:00:24.782Z,0
2018-03-12T04:01:26.387Z,0
2018-03-12T04:02:27.997Z,0
2018-03-12T04:03:29.602Z,0
2018-03-12T04:04:31.211Z,0
2018-03-12T04:05:32.817Z,0
2018-03-12T04:06:34.429Z,0
2018-03-12T04:07:36.035Z,0
2018-03-12T04:08:37.649Z,0
2018-03-12T04:09:39.252Z,0
2018-03-12T04:10:40.864Z,0
2018-03-12T04:11:42.466Z,0
2018-03-12T04:12:44.073Z,0
2018-03-12T04:13:45.683Z,0
2018-03-12T04:14:47.294Z,0
2018-03-12T04:15:48.898Z,0
2018-03-12T04:16:50.509Z,0
2018-03-12T04:17:52.122Z,0
2018-03-12T04:18:53.731Z,0
2018-03-12T04:19:55.334Z,0
2018-03-12T04:20:56.939Z,0
2018-03-12T04:21:58.550Z,0
2018-03-12T04:23:00.159Z,0
2018-03-12T04:24:01.768Z,0
2018-03-12T04:25:03.373Z,0
2018-03-12T04:26:04.984Z,0
2018-03-12T04:27:06.592Z,0
2018-03-12T04:28:08.201Z,0
2018-03-12T04:29:09.812Z,0
2018-03-12T04:30:11.416Z,0
2018-03-12T04:31:13.023Z,0
2018-03-12T04:32:14.635Z,0
2018-03-12T04:33:16.244Z,0
2018-03-12T04:34:17.897Z,0
2018-03-12T04:35:19.457Z,0
2018-03-12T04:36:21.073Z,0
2018-03-12T04:37:22.688Z,0
2018-03-12T04:38:24.291Z,0
2018-03-12T04:39:25.905Z,0
2018-03-12T04:40:27.563Z,0
2018-03-12T04:41:29.116Z,0
2018-03-12T04:42:30.726Z,0
2018-03-12T04:43:32.335Z,0
2018-03-12T04:44:33.939Z,0
2018-03-12T04:45:35.546Z,0
2018-03-12T04:46:37.161Z,0
2018-03-12T04:47:38.762Z,0
2018-03-12T04:48:40.366Z,0
2018-03-12T04:49:41.974Z,0
2018-03-12T04:50:43.585Z,0
2018-03-12T04:51:45.195Z,0
2018-03-12T04:52:46.801Z,0
2018-03-12T04:53:48.408Z,0
2018-03-12T04:54:50.019Z,0
2018-03-12T04:55:51.624Z,0
2018-03-12T04:56:53.235Z,0
2018-03-12T04:57:54.849Z,0
2018-03-12T04:58:56.461Z,0
2018-03-12T04:59:58.068Z,0
2018-03-12T05:00:59.682Z,0
2018-03-12T05:02:01.288Z,0
2018-03-12T05:03:03.400Z,0
2018-03-12T05:04:05.003Z,0
2018-03-12T05:05:06.615Z,0
2018-03-12T05:06:08.222Z,0
2018-03-12T05:07:09.834Z,0
2018-03-12T05:08:11.441Z,0
2018-03-12T05:09:13.051Z,0
2018-03-12T05:10:14.653Z,0
2018-03-12T05:11:16.263Z,0
2018-03-12T05:12:17.873Z,0
2018-03-12T05:13:19.480Z,0
2018-03-12T05:14:21.094Z,0
2018-03-12T05:15:22.701Z,0
2018-03-12T05:16:24.314Z,0
2018-03-12T05:17:25.914Z,0
2018-03-12T05:18:27.530Z,0
2018-03-12T05:19:29.135Z,0
2018-03-12T05:20:30.748Z,0
2018-03-12T05:21:32.355Z,0
2018-03-12T05:22:33.969Z,0
2018-03-12T05:23:35.570Z,0
2018-03-12T05:24:37.178Z,0
2018-03-12T05:25:38.786Z,0
2018-03-12T05:26:40.397Z,0
2018-03-12T05:27:42.005Z,0
2018-03-12T05:28:43.618Z,0
2018-03-12T05:29:45.225Z,0
2018-03-12T05:30:46.836Z,0
2018-03-12T05:31:48.458Z,0
2018-03-12T05:32:50.066Z,0
2018-03-12T05:33:51.687Z,0
2018-03-12T05:34:53.276Z,0
2018-03-12T05:35:54.911Z,0
2018-03-12T05:36:56.518Z,0
2018-03-12T05:37:58.127Z,0
2018-03-12T05:38:59.736Z,0
2018-03-12T05:40:01.339Z,0
2018-03-12T05:41:02.963Z,0
2018-03-12T05:42:04.577Z,0
2018-03-12T05:43:06.190Z,0
2018-03-12T05:44:07.799Z,0
2018-03-12T05:45:09.407Z,0
2018-03-12T05:46:11.017Z,0
2018-03-12T05:47:12.662Z,0
2018-03-12T05:48:14.266Z,0
2018-03-12T05:49:15.877Z,0
2018-03-12T05:50:17.489Z,0
2018-03-12T05:51:19.098Z,0
2018-03-12T05:52:20.714Z,0
2018-03-12T05:53:22.324Z,5
2018-03-12T05:54:23.930Z,5
2018-03-12T05:55:25.540Z,5
2018-03-12T05:56:27.149Z,5
2018-03-12T05:57:28.763Z,5
2018-03-12T05:58:30.370Z,5
2018-03-12T05:59:31.982Z,5
2018-03-12T06:00:33.589Z,5
2018-03-12T06:01:35.202Z,5
2018-03-12T06:02:36.806Z,5
2018-03-12T06:03:38.415Z,5
2018-03-12T06:04:40.052Z,5
2018-03-12T06:05:41.661Z,5
2018-03-12T06:06:43.268Z,5
2018-03-12T06:07:44.881Z,5
2018-03-12T06:08:46.488Z,11
2018-03-12T06:09:48.100Z,11
2018-03-12T06:10:49.715Z,11
2018-03-12T06:11:51.329Z,11
2018-03-12T06:12:52.944Z,11
2018-03-12T06:13:54.556Z,16
2018-03-12T06:14:56.170Z,5
2018-03-12T06:15:57.780Z,16
2018-03-12T06:16:59.397Z,16
2018-03-12T06:18:01.014Z,16
2018-03-12T06:19:02.624Z,22
2018-03-12T06:20:04.241Z,22
2018-03-12T06:21:05.849Z,22
2018-03-12T06:22:07.457Z,22
2018-03-12T06:23:09.069Z,22
2018-03-12T06:24:10.683Z,22
2018-03-12T06:25:12.299Z,28
2018-03-12T06:26:13.907Z,28
2018-03-12T06:27:15.525Z,28
2018-03-12T06:28:17.137Z,28
2018-03-12T06:29:18.743Z,28
2018-03-12T06:30:20.351Z,33
2018-03-12T06:31:21.973Z,33
2018-03-12T06:32:23.576Z,39
2018-03-12T06:33:25.185Z,39
2018-03-12T06:34:26.794Z,45
2018-03-12T06:35:28.410Z,45
2018-03-12T06:36:30.017Z,50
2018-03-12T06:37:31.632Z,50
2018-03-12T06:38:33.246Z,56
2018-03-12T06:39:34.856Z,56
2018-03-12T06:40:36.465Z,61
2018-03-12T06:41:38.077Z,61
2018-03-12T06:42:39.686Z,61
2018-03-12T06:43:41.304Z,67
2018-03-12T06:44:42.912Z,73
2018-03-12T06:45:44.520Z,73
2018-03-12T06:46:46.131Z,78
2018-03-12T06:47:47.798Z,84
2018-03-12T06:48:49.360Z,84
2018-03-12T06:49:50.968Z,90
2018-03-12T06:50:52.582Z,90
2018-03-12T06:51:54.192Z,95
2018-03-12T06:52:55.806Z,95
2018-03-12T06:53:57.986Z,95
2018-03-12T06:54:59.597Z,95
2018-03-12T06:56:01.211Z,95
2018-03-12T06:57:02.826Z,95
2018-03-12T06:58:04.435Z,95
2018-03-12T06:59:06.051Z,90
2018-03-12T07:00:07.661Z,90
2018-03-12T07:01:09.277Z,84
2018-03-12T07:02:10.900Z,78
2018-03-12T07:03:12.505Z,73
2018-03-12T07:04:14.114Z,73
2018-03-12T07:05:15.727Z,67
2018-03-12T07:06:17.337Z,61
2018-03-12T07:07:18.949Z,56
2018-03-12T07:08:20.569Z,56
2018-03-12T07:09:22.181Z,56
2018-03-12T07:10:23.799Z,56
2018-03-12T07:11:25.415Z,61
2018-03-12T07:12:27.025Z,67
2018-03-12T07:13:28.638Z,73
2018-03-12T07:14:30.251Z,78
2018-03-12T07:15:31.861Z,84
2018-03-12T07:16:33.478Z,84
2018-03-12T07:17:35.089Z,90
2018-03-12T07:18:36.703Z,101
2018-03-12T07:19:38.342Z,106
2018-03-12T07:20:39.930Z,106
2018-03-12T07:21:41.539Z,106
2018-03-12T07:22:43.156Z,112
2018-03-12T07:23:44.795Z,112
2018-03-12T07:24:46.385Z,112
2018-03-12T07:25:47.997Z,106
2018-03-12T07:26:49.612Z,95
2018-03-12T07:27:51.223Z,106
2018-03-12T07:28:52.840Z,106
2018-03-12T07:29:54.450Z,106
2018-03-12T07:30:56.265Z,112
2018-03-12T07:31:57.882Z,123
2018-03-12T07:32:59.500Z,135
2018-03-12T07:34:01.140Z,146
2018-03-12T07:35:02.933Z,157
2018-03-12T07:36:04.529Z,157
2018-03-12T07:37:06.145Z,163
2018-03-12T07:38:07.804Z,163
2018-03-12T07:39:09.618Z,157
2018-03-12T07:40:12.032Z,157
2018-03-12T07:41:13.644Z,151
2018-03-12T07:42:15.261Z,146
2018-03-12T07:43:16.876Z,140
2018-03-12T07:44:18.486Z,140
2018-03-12T07:45:20.101Z,135
2018-03-12T07:46:21.720Z,129
2018-03-12T07:47:23.330Z,123
2018-03-12T07:48:24.947Z,118
2018-03-12T07:49:26.556Z,112
2018-03-12T07:50:28.169Z,112
2018-03-12T07:51:29.787Z,101
2018-03-12T07:52:31.404Z,106
2018-03-12T07:53:33.025Z,112
2018-03-12T07:54:34.634Z,118
2018-03-12T07:55:36.252Z,129
2018-03-12T07:56:37.868Z,129
2018-03-12T07:57:39.478Z,135
2018-03-12T07:58:41.097Z,135
2018-03-12T07:59:42.711Z,135
2018-03-12T08:00:44.329Z,135
2018-03-12T08:01:45.938Z,129
2018-03-12T08:02:47.554Z,123
2018-03-12T08:03:49.164Z,118
2018-03-12T08:04:50.783Z,118
2018-03-12T08:05:52.395Z,112
2018-03-12T08:06:54.042Z,112
2018-03-12T08:07:55.632Z,118
2018-03-12T08:08:57.244Z,135
2018-03-12T08:09:58.860Z,140
2018-03-12T08:11:00.472Z,146
2018-03-12T08:12:02.084Z,151
2018-03-12T08:13:03.698Z,157
2018-03-12T08:14:05.317Z,157
2018-03-12T08:15:06.929Z,157
2018-03-12T08:16:08.546Z,151
2018-03-12T08:17:10.157Z,151
2018-03-12T08:18:11.777Z,151
2018-03-12T08:19:13.387Z,163
2018-03-12T08:20:15.005Z,157
2018-03-12T08:21:16.629Z,191
2018-03-12T08:22:18.243Z,202
2018-03-12T08:23:19.852Z,208
2018-03-12T08:24:21.469Z,208
2018-03-12T08:25:23.078Z,208
2018-03-12T08:26:24.698Z,202
2018-03-12T08:27:26.311Z,196
2018-03-12T08:28:27.932Z,191
2018-03-12T08:29:29.554Z,174
2018-03-12T08:30:31.159Z,157
2018-03-12T08:31:32.770Z,151
2018-03-12T08:32:34.387Z,146
2018-03-12T08:33:36.005Z,140
2018-03-12T08:34:37.616Z,135
2018-03-12T08:35:39.231Z,135
2018-03-12T08:36:40.853Z,129
2018-03-12T08:37:42.469Z,129
2018-03-12T08:38:44.080Z,129
2018-03-12T08:39:45.700Z,129
2018-03-12T08:40:47.312Z,129
2018-03-12T08:41:48.924Z,140
2018-03-12T08:42:51.306Z,146
2018-03-12T08:43:52.923Z,157
2018-03-12T08:44:54.538Z,163
2018-03-12T08:45:56.149Z,163
2018-03-12T08:46:57.765Z,163
2018-03-12T08:47:59.380Z,157
2018-03-12T08:49:00.993Z,163
2018-03-12T08:50:02.619Z,163
2018-03-12T08:51:04.245Z,163
2018-03-12T08:52:05.846Z,168
2018-03-12T08:53:07.456Z,174
2018-03-12T08:54:09.072Z,180
2018-03-12T08:55:10.684Z,191
2018-03-12T08:56:12.298Z,202
2018-03-12T08:57:13.918Z,213
2018-03-12T08:58:15.535Z,219
2018-03-12T08:59:17.147Z,241
2018-03-12T09:00:18.757Z,270
2018-03-12T09:01:20.376Z,309
2018-03-12T09:02:21.988Z,343
2018-03-12T09:03:23.598Z,393
2018-03-12T09:04:25.252Z,438
2018-03-12T09:05:26.836Z,466
2018-03-12T09:06:28.451Z,455
2018-03-12T09:07:30.062Z,410
2018-03-12T09:08:31.678Z,354
2018-03-12T09:09:33.287Z,320
2018-03-12T09:10:34.905Z,292
2018-03-12T09:11:36.524Z,264
2018-03-12T09:12:38.139Z,253
2018-03-12T09:13:39.749Z,275
2018-03-12T09:14:41.367Z,292
2018-03-12T09:15:43.033Z,315
2018-03-12T09:16:44.601Z,326
2018-03-12T09:17:46.216Z,326
2018-03-12T09:18:47.832Z,315
2018-03-12T09:19:49.535Z,303
2018-03-12T09:20:51.063Z,292
2018-03-12T09:21:52.674Z,275
2018-03-12T09:22:54.296Z,264
2018-03-12T09:23:55.908Z,258
2018-03-12T09:24:57.589Z,264
2018-03-12T09:25:59.142Z,270
2018-03-12T09:27:00.758Z,264
2018-03-12T09:28:02.387Z,270
2018-03-12T09:29:03.982Z,286
2018-03-12T09:30:05.601Z,298
2018-03-12T09:31:07.212Z,315
2018-03-12T09:32:08.830Z,315
2018-03-12T09:33:10.470Z,315
2018-03-12T09:34:12.068Z,315
2018-03-12T09:35:13.678Z,326
2018-03-12T09:36:15.298Z,354
2018-03-12T09:37:16.908Z,371
2018-03-12T09:38:18.528Z,354
2018-03-12T09:39:20.142Z,331
2018-03-12T09:40:21.763Z,315
2018-03-12T09:41:23.379Z,298
2018-03-12T09:42:24.993Z,281
2018-03-12T09:43:26.612Z,281
2018-03-12T09:44:28.224Z,303
2018-03-12T09:45:29.840Z,331
2018-03-12T09:46:31.458Z,393
2018-03-12T09:47:33.077Z,500
2018-03-12T09:48:34.690Z,669
2018-03-12T09:49:36.304Z,973
2018-03-12T09:50:37.931Z,1074
2018-03-12T09:51:39.547Z,1170
2018-03-12T09:52:41.159Z,1215
2018-03-12T09:53:42.774Z,1260
2018-03-12T09:54:44.395Z,1080
2018-03-12T09:55:46.016Z,1001
2018-03-12T09:56:47.628Z,984
2018-03-12T09:57:49.252Z,945
2018-03-12T09:58:51.834Z,956
2018-03-12T09:59:53.452Z,1080
2018-03-12T10:00:55.074Z,1276
2018-03-12T10:01:56.694Z,1546
2018-03-12T10:02:58.320Z,1479
2018-03-12T10:03:59.933Z,1569
2018-03-12T10:05:01.556Z,1670
2018-03-12T10:06:03.170Z,2154
2018-03-12T10:07:04.791Z,2289
2018-03-12T10:08:06.411Z,2334
2018-03-12T10:09:08.029Z,2356
2018-03-12T10:10:09.689Z,2818
2018-03-12T10:11:11.265Z,3082
2018-03-12T10:12:12.879Z,3223
2018-03-12T10:13:18.097Z,3285
2018-03-12T10:14:19.672Z,3268
2018-03-12T10:15:21.296Z,2919
2018-03-12T10:16:22.915Z,3346
2018-03-12T10:17:24.543Z,3268
2018-03-12T10:18:26.163Z,3380
2018-03-12T10:19:27.785Z,2626
2018-03-12T10:20:29.402Z,1726
2018-03-12T10:21:31.031Z,1530
2018-03-12T10:22:32.650Z,1704
2018-03-12T10:23:34.312Z,1428
2018-03-12T10:24:35.898Z,1231
2018-03-12T10:25:37.514Z,1141
2018-03-12T10:26:39.139Z,1018
2018-03-12T10:27:40.760Z,933
2018-03-12T10:28:42.380Z,776
2018-03-12T10:29:44.003Z,793
2018-03-12T10:30:45.657Z,877
2018-03-12T10:31:47.249Z,855
2018-03-12T10:32:48.866Z,793
2018-03-12T10:33:50.492Z,770
2018-03-12T10:34:52.115Z,804
2018-03-12T10:35:53.730Z,860
2018-03-12T10:36:55.348Z,928
2018-03-12T10:37:56.973Z,1046
2018-03-12T10:38:58.599Z,1299
2018-03-12T10:40:00.213Z,1901
2018-03-12T10:41:01.837Z,1558
2018-03-12T10:42:03.456Z,1305
2018-03-12T10:43:05.092Z,1158
2018-03-12T10:44:06.697Z,1153
2018-03-12T10:45:08.322Z,1012
2018-03-12T10:46:09.944Z,916
2018-03-12T10:47:11.561Z,826
2018-03-12T10:48:13.176Z,731
2018-03-12T10:49:14.801Z,663
2018-03-12T10:50:16.421Z,607
2018-03-12T10:51:18.039Z,523
2018-03-12T10:52:19.655Z,427
2018-03-12T10:53:21.278Z,376
2018-03-12T10:54:22.892Z,360
2018-03-12T10:55:24.511Z,354
2018-03-12T10:56:26.125Z,348
2018-03-12T10:57:27.743Z,343
2018-03-12T10:58:29.364Z,365
2018-03-12T10:59:30.987Z,393
2018-03-12T11:00:32.606Z,427
2018-03-12T11:01:34.226Z,466
2018-03-12T11:02:35.844Z,511
2018-03-12T11:03:37.462Z,517
2018-03-12T11:04:39.076Z,517
2018-03-12T11:05:40.691Z,506
2018-03-12T11:06:42.318Z,511
2018-03-12T11:07:43.928Z,506
2018-03-12T11:08:45.546Z,506
2018-03-12T11:09:47.165Z,517
2018-03-12T11:10:48.782Z,562
2018-03-12T11:11:50.400Z,618
2018-03-12T11:12:52.020Z,658
2018-03-12T11:13:53.640Z,669
2018-03-12T11:14:55.257Z,703
2018-03-12T11:15:56.874Z,720
2018-03-12T11:16:58.493Z,658
2018-03-12T11:18:00.107Z,585
2018-03-12T11:19:01.722Z,551
2018-03-12T11:20:03.339Z,562
2018-03-12T11:21:04.958Z,613
2018-03-12T11:22:06.572Z,635
2018-03-12T11:23:08.191Z,652
2018-03-12T11:24:09.825Z,703
2018-03-12T11:25:11.425Z,787
2018-03-12T11:26:13.040Z,945
2018-03-12T11:27:14.662Z,1068
2018-03-12T11:28:16.284Z,1366
2018-03-12T11:29:17.903Z,2103
2018-03-12T11:30:19.520Z,2283
2018-03-12T11:31:21.139Z,1507
2018-03-12T11:32:22.752Z,1563
2018-03-12T11:33:24.372Z,1327
2018-03-12T11:34:25.998Z,1147
2018-03-12T11:35:27.617Z,1113
2018-03-12T11:36:29.237Z,973
2018-03-12T11:37:30.852Z,933
2018-03-12T11:38:32.470Z,933
2018-03-12T11:39:34.090Z,838
2018-03-12T11:40:35.706Z,770
2018-03-12T11:41:37.321Z,804
2018-03-12T11:42:38.944Z,1569
2018-03-12T11:43:40.564Z,1164
2018-03-12T11:44:42.187Z,2075
2018-03-12T11:45:43.806Z,1580
2018-03-12T11:46:45.430Z,2300
2018-03-12T11:47:47.056Z,2171
2018-03-12T11:48:48.682Z,1378
2018-03-12T11:49:50.302Z,1096
2018-03-12T11:50:51.933Z,1074
2018-03-12T11:51:53.554Z,1203
2018-03-12T11:52:55.180Z,1338
2018-03-12T11:53:56.804Z,1659
2018-03-12T11:54:58.429Z,1951
2018-03-12T11:56:00.050Z,1608
2018-03-12T11:57:01.699Z,1023
2018-03-12T11:58:03.294Z,770
2018-03-12T11:59:04.920Z,708
2018-03-12T12:00:06.538Z,849
2018-03-12T12:01:08.164Z,978
2018-03-12T12:02:09.783Z,1006
2018-03-12T12:03:11.410Z,900
2018-03-12T12:04:13.030Z,888
2018-03-12T12:05:14.654Z,1603
2018-03-12T12:06:16.279Z,821
2018-03-12T12:07:17.896Z,748
2018-03-12T12:08:19.516Z,703
2018-03-12T12:09:21.133Z,720
2018-03-12T12:10:22.755Z,697
2018-03-12T12:11:24.380Z,590
2018-03-12T12:12:26.007Z,483
2018-03-12T12:13:27.623Z,438
2018-03-12T12:14:29.246Z,461
2018-03-12T12:15:30.862Z,540
2018-03-12T12:16:32.487Z,573
2018-03-12T12:17:34.107Z,585
2018-03-12T12:18:35.733Z,624
2018-03-12T12:19:37.351Z,714
2018-03-12T12:20:38.985Z,888
2018-03-12T12:21:40.596Z,1006
2018-03-12T12:22:42.223Z,1068
2018-03-12T12:23:43.844Z,1057
2018-03-12T12:24:45.472Z,855
2018-03-12T12:25:47.096Z,697
2018-03-12T12:26:48.714Z,618
2018-03-12T12:27:50.339Z,590
2018-03-12T12:28:51.957Z,545
2018-03-12T12:29:53.576Z,461
2018-03-12T12:30:55.203Z,360
2018-03-12T12:31:56.827Z,270
2018-03-12T12:32:58.445Z,253
2018-03-12T12:34:00.066Z,270
2018-03-12T12:35:01.687Z,258
2018-03-12T12:36:03.312Z,241
2018-03-12T12:37:04.928Z,219
2018-03-12T12:38:06.550Z,208
2018-03-12T12:39:08.174Z,191
2018-03-12T12:40:09.893Z,168
2018-03-12T12:41:11.414Z,146
2018-03-12T12:42:13.036Z,112
2018-03-12T12:43:14.655Z,106
2018-03-12T12:44:16.277Z,106
2018-03-12T12:45:17.896Z,101
2018-03-12T12:46:19.516Z,95
2018-03-12T12:47:21.670Z,101
2018-03-12T12:48:23.295Z,112
2018-03-12T12:49:24.910Z,112
2018-03-12T12:50:26.577Z,135
2018-03-12T12:51:28.152Z,168
2018-03-12T12:52:29.771Z,191
2018-03-12T12:53:31.388Z,230
2018-03-12T12:54:33.006Z,241
2018-03-12T12:55:34.634Z,258
2018-03-12T12:56:36.254Z,275
2018-03-12T12:57:37.868Z,281
2018-03-12T12:58:39.493Z,303
2018-03-12T12:59:41.107Z,320
2018-03-12T13:00:42.728Z,382
2018-03-12T13:01:44.348Z,528
2018-03-12T13:02:45.972Z,708
2018-03-12T13:03:47.585Z,691
2018-03-12T13:04:49.215Z,618
2018-03-12T13:05:50.825Z,590
2018-03-12T13:06:52.450Z,528
2018-03-12T13:07:54.066Z,523
2018-03-12T13:08:55.693Z,478
2018-03-12T13:09:57.311Z,450
2018-03-12T13:10:58.935Z,433
2018-03-12T13:12:00.552Z,444
2018-03-12T13:13:02.172Z,466
2018-03-12T13:14:03.870Z,461
2018-03-12T13:15:05.490Z,438
2018-03-12T13:16:07.114Z,382
2018-03-12T13:17:08.736Z,298
2018-03-12T13:18:10.358Z,253
2018-03-12T13:19:11.973Z,286
2018-03-12T13:20:13.595Z,371
2018-03-12T13:21:15.211Z,393
2018-03-12T13:22:16.836Z,421
2018-03-12T13:23:18.452Z,421
2018-03-12T13:24:20.078Z,393
2018-03-12T13:25:21.698Z,360
2018-03-12T13:26:23.350Z,331
2018-03-12T13:27:24.932Z,320
2018-03-12T13:28:26.555Z,331
2018-03-12T13:29:28.180Z,360
2018-03-12T13:30:29.797Z,399
2018-03-12T13:31:31.418Z,410
2018-03-12T13:32:33.040Z,393
2018-03-12T13:33:34.655Z,416
2018-03-12T13:34:36.273Z,466
2018-03-12T13:35:37.892Z,534
2018-03-12T13:36:39.515Z,528
2018-03-12T13:37:41.139Z,478
2018-03-12T13:38:42.756Z,427
2018-03-12T13:39:44.374Z,371
2018-03-12T13:40:45.998Z,343
2018-03-12T13:41:47.617Z,315
2018-03-12T13:42:49.237Z,286
2018-03-12T13:43:50.860Z,281
2018-03-12T13:44:52.476Z,270
2018-03-12T13:45:54.133Z,236
2018-03-12T13:46:55.725Z,213
2018-03-12T13:47:57.339Z,174
2018-03-12T13:48:58.956Z,213
2018-03-12T13:50:00.582Z,225
2018-03-12T13:51:02.197Z,225
2018-03-12T13:52:03.817Z,191
2018-03-12T13:53:05.442Z,174
2018-03-12T13:54:07.072Z,174
2018-03-12T13:55:08.677Z,168
2018-03-12T13:56:10.321Z,157
2018-03-12T13:57:11.922Z,163
2018-03-12T13:58:13.542Z,185
2018-03-12T13:59:15.160Z,208
2018-03-12T14:00:16.791Z,230
2018-03-12T14:01:18.398Z,230
2018-03-12T14:02:20.077Z,230
2018-03-12T14:03:21.655Z,241
2018-03-12T14:04:23.279Z,264
2018-03-12T14:05:24.899Z,292
2018-03-12T14:06:26.522Z,303
2018-03-12T14:07:28.656Z,286
2018-03-12T14:08:30.294Z,253
2018-03-12T14:09:31.913Z,219
2018-03-12T14:10:33.534Z,185
2018-03-12T14:11:35.151Z,163
2018-03-12T14:12:36.777Z,146
2018-03-12T14:13:38.394Z,140
2018-03-12T14:14:40.021Z,123
2018-03-12T14:15:41.642Z,106
2018-03-12T14:16:43.257Z,95
2018-03-12T14:17:44.877Z,84
2018-03-12T14:18:46.490Z,67
2018-03-12T14:19:48.112Z,61
2018-03-12T14:20:49.728Z,67
2018-03-12T14:21:51.352Z,67
2018-03-12T14:22:52.970Z,78
2018-03-12T14:23:54.590Z,101
2018-03-12T14:24:56.216Z,174
2018-03-12T14:25:57.830Z,556
2018-03-12T14:26:59.454Z,399
2018-03-12T14:28:01.078Z,444
2018-03-12T14:29:02.701Z,495
2018-03-12T14:30:04.319Z,568
2018-03-12T14:31:05.968Z,613
2018-03-12T14:32:07.644Z,540
2018-03-12T14:33:09.268Z,478
2018-03-12T14:34:10.897Z,438